EDV4944 KSDF-KDTW
Flight info
| Callsign | EDV4944 |
|---|---|
| Flight time | 1h 10m |
| Altitude | 29000 |
| Route | SPILR1 BNGIN DQN TORRR HANBL3 |
| Aircraft | CRJ9/M-SDFGIRWY/S |
Departure
| Time | 2026-05-03 20:42 |
|---|---|
| Airport | Louisville Muhammad Ali International Airport (KSDF) |
Arrival
| Time | 2026-05-03 21:52 |
|---|---|
| Airport | Detroit Metropolitan Wayne County Airport (KDTW) |
| Time | Latitude | Longitude | Altitude | Speed | Heading |
|---|---|---|---|---|---|
| 2026-05-03 20:31 | 38.18311 | -85.73952 | 485 ft | 0 kts | 37° |
| 2026-05-03 20:34 | 38.18306 | -85.73957 | 485 ft | 2 kts | 36° |
| 2026-05-03 20:34 | 38.18293 | -85.73970 | 477 ft | 2 kts | 37° |
| 2026-05-03 20:35 | 38.18280 | -85.73982 | 482 ft | 2 kts | 40° |
| 2026-05-03 20:35 | 38.18276 | -85.74000 | 476 ft | 2 kts | 126° |
| 2026-05-03 20:35 | 38.18282 | -85.74008 | 483 ft | 0 kts | 147° |
| 2026-05-03 20:37 | 38.18279 | -85.74006 | 483 ft | 3 kts | 147° |
| 2026-05-03 20:37 | 38.18235 | -85.73961 | 480 ft | 9 kts | 113° |
| 2026-05-03 20:37 | 38.18256 | -85.73873 | 482 ft | 14 kts | 61° |
| 2026-05-03 20:38 | 38.18306 | -85.73767 | 480 ft | 13 kts | 58° |
| 2026-05-03 20:38 | 38.18333 | -85.73669 | 482 ft | 11 kts | 105° |
| 2026-05-03 20:38 | 38.18307 | -85.73588 | 482 ft | 9 kts | 80° |
| 2026-05-03 20:38 | 38.18341 | -85.73503 | 482 ft | 14 kts | 56° |
| 2026-05-03 20:39 | 38.18436 | -85.73440 | 484 ft | 17 kts | 10° |
| 2026-05-03 20:39 | 38.18555 | -85.73402 | 489 ft | 19 kts | 27° |
| 2026-05-03 20:39 | 38.18602 | -85.73365 | 488 ft | 1 kts | 37° |
| 2026-05-03 20:39 | 38.18619 | -85.73348 | 483 ft | 7 kts | 37° |
| 2026-05-03 20:40 | 38.18671 | -85.73286 | 483 ft | 12 kts | 49° |
| 2026-05-03 20:40 | 38.18703 | -85.73211 | 482 ft | 10 kts | 75° |
| 2026-05-03 20:40 | 38.18686 | -85.73122 | 480 ft | 12 kts | 150° |
| 2026-05-03 20:40 | 38.18666 | -85.73112 | 479 ft | 0 kts | 163° |
| 2026-05-03 20:41 | 38.18484 | -85.73052 | 477 ft | 67 kts | 165° |
| 2026-05-03 20:41 | 38.17797 | -85.72817 | 484 ft | 136 kts | 166° |
| 2026-05-03 20:41 | 38.16785 | -85.72465 | 946 ft | 159 kts | 165° |
| 2026-05-03 20:42 | 38.15698 | -85.72013 | 1791 ft | 170 kts | 165° |
| 2026-05-03 20:42 | 38.14504 | -85.71542 | 2395 ft | 197 kts | 168° |
| 2026-05-03 20:42 | 38.13038 | -85.71072 | 2930 ft | 229 kts | 169° |
| 2026-05-03 20:42 | 38.11448 | -85.70604 | 3842 ft | 238 kts | 171° |
| 2026-05-03 20:43 | 38.09807 | -85.70137 | 4864 ft | 243 kts | 169° |
| 2026-05-03 20:43 | 38.08190 | -85.69320 | 5727 ft | 262 kts | 150° |
| 2026-05-03 20:43 | 38.06755 | -85.67827 | 6664 ft | 274 kts | 139° |
| 2026-05-03 20:43 | 38.05419 | -85.65983 | 7359 ft | 291 kts | 134° |
| 2026-05-03 20:44 | 38.04125 | -85.64001 | 8344 ft | 297 kts | 124° |
| 2026-05-03 20:44 | 38.03425 | -85.61498 | 9170 ft | 306 kts | 94° |
| 2026-05-03 20:44 | 38.03562 | -85.58954 | 9988 ft | 310 kts | 71° |
| 2026-05-03 20:44 | 38.04475 | -85.56445 | 10432 ft | 321 kts | 47° |
| 2026-05-03 20:45 | 38.06071 | -85.54451 | 11046 ft | 323 kts | 31° |
| 2026-05-03 20:45 | 38.07934 | -85.52754 | 11626 ft | 338 kts | 28° |
| 2026-05-03 20:45 | 38.10028 | -85.51387 | 12160 ft | 340 kts | 9° |
| 2026-05-03 20:45 | 38.12311 | -85.51021 | 13219 ft | 326 kts | 354° |
| 2026-05-03 20:46 | 38.14592 | -85.51082 | 13622 ft | 343 kts | 350° |
| 2026-05-03 20:46 | 38.17006 | -85.51637 | 13584 ft | 362 kts | 339° |
| 2026-05-03 20:46 | 38.19414 | -85.52675 | 14515 ft | 353 kts | 335° |
| 2026-05-03 20:46 | 38.21650 | -85.53699 | 15719 ft | 340 kts | 335° |
| 2026-05-03 20:47 | 38.23854 | -85.54710 | 16746 ft | 336 kts | 335° |
| 2026-05-03 20:47 | 38.25910 | -85.55605 | 17348 ft | 340 kts | 336° |
| 2026-05-03 20:47 | 38.28200 | -85.56560 | 18010 ft | 344 kts | 337° |
| 2026-05-03 20:47 | 38.30495 | -85.57497 | 18608 ft | 347 kts | 337° |
| 2026-05-03 20:48 | 38.32789 | -85.58446 | 19179 ft | 350 kts | 337° |
| 2026-05-03 20:48 | 38.35107 | -85.59417 | 19708 ft | 352 kts | 336° |
| 2026-05-03 20:48 | 38.37418 | -85.60459 | 20236 ft | 351 kts | 329° |
| 2026-05-03 20:48 | 38.39417 | -85.62188 | 20760 ft | 347 kts | 318° |
| 2026-05-03 20:49 | 38.41214 | -85.64182 | 21282 ft | 348 kts | 314° |
| 2026-05-03 20:49 | 38.42928 | -85.66368 | 21785 ft | 350 kts | 311° |
| 2026-05-03 20:49 | 38.44621 | -85.68616 | 22289 ft | 352 kts | 311° |
| 2026-05-03 20:49 | 38.46283 | -85.70793 | 22769 ft | 354 kts | 312° |
| 2026-05-03 20:50 | 38.48040 | -85.73015 | 23248 ft | 357 kts | 313° |
| 2026-05-03 20:50 | 38.49781 | -85.75177 | 23693 ft | 359 kts | 313° |
| 2026-05-03 20:50 | 38.51572 | -85.77410 | 24087 ft | 361 kts | 313° |
| 2026-05-03 20:50 | 38.53372 | -85.79665 | 24478 ft | 362 kts | 313° |
| 2026-05-03 20:51 | 38.55125 | -85.81865 | 24852 ft | 364 kts | 312° |
| 2026-05-03 20:51 | 38.56909 | -85.84110 | 25219 ft | 365 kts | 312° |
| 2026-05-03 20:51 | 38.58722 | -85.86388 | 25630 ft | 366 kts | 312° |
| 2026-05-03 20:51 | 38.60528 | -85.88672 | 26010 ft | 366 kts | 312° |
| 2026-05-03 20:52 | 38.62276 | -85.90861 | 26330 ft | 368 kts | 311° |
| 2026-05-03 20:52 | 38.64104 | -85.93166 | 26664 ft | 369 kts | 311° |
| 2026-05-03 20:52 | 38.65967 | -85.95449 | 26997 ft | 371 kts | 313° |
| 2026-05-03 20:52 | 38.67810 | -85.97763 | 27306 ft | 371 kts | 310° |
| 2026-05-03 20:53 | 38.69618 | -86.00137 | 27593 ft | 373 kts | 310° |
| 2026-05-03 20:53 | 38.71460 | -86.02490 | 27887 ft | 375 kts | 311° |
| 2026-05-03 20:53 | 38.73380 | -86.04770 | 28153 ft | 381 kts | 318° |
| 2026-05-03 20:53 | 38.75787 | -86.06315 | 28413 ft | 397 kts | 337° |
| 2026-05-03 20:54 | 38.78517 | -86.07068 | 28660 ft | 404 kts | 341° |
| 2026-05-03 20:54 | 38.84123 | -86.08255 | 29030 ft | 414 kts | 344° |
| 2026-05-03 20:54 | 38.87048 | -86.08474 | 29057 ft | 433 kts | 356° |
| 2026-05-03 20:55 | 38.90076 | -86.07757 | 29077 ft | 449 kts | 5° |
| 2026-05-03 20:55 | 38.93135 | -86.06827 | 29079 ft | 455 kts | 4° |
| 2026-05-03 20:55 | 38.99386 | -86.05275 | 29073 ft | 461 kts | 0° |
| 2026-05-03 20:56 | 39.05728 | -86.03756 | 29101 ft | 481 kts | 12° |
| 2026-05-03 20:56 | 39.08757 | -86.01724 | 29080 ft | 502 kts | 27° |
| 2026-05-03 20:56 | 39.11493 | -85.99042 | 29070 ft | 488 kts | 31° |
| 2026-05-03 20:57 | 39.16396 | -85.93044 | 29039 ft | 491 kts | 44° |
| 2026-05-03 20:57 | 39.20335 | -85.85853 | 29041 ft | 489 kts | 49° |
| 2026-05-03 20:58 | 39.24173 | -85.78809 | 29038 ft | 485 kts | 46° |
| 2026-05-03 20:58 | 39.28121 | -85.71908 | 29067 ft | 485 kts | 46° |
| 2026-05-03 20:59 | 39.32110 | -85.64860 | 29046 ft | 486 kts | 46° |
| 2026-05-03 20:59 | 39.36101 | -85.57806 | 29045 ft | 486 kts | 46° |
| 2026-05-03 21:00 | 39.38722 | -85.53163 | 29052 ft | 486 kts | 46° |
| 2026-05-03 21:00 | 39.44031 | -85.43746 | 29087 ft | 487 kts | 46° |
| 2026-05-03 21:01 | 39.48031 | -85.36632 | 29111 ft | 490 kts | 46° |
| 2026-05-03 21:01 | 39.52048 | -85.29476 | 29071 ft | 492 kts | 47° |
| 2026-05-03 21:02 | 39.56066 | -85.22289 | 29052 ft | 491 kts | 47° |
| 2026-05-03 21:02 | 39.60074 | -85.15113 | 29042 ft | 491 kts | 47° |
| 2026-05-03 21:03 | 39.63340 | -85.09250 | 29059 ft | 491 kts | 47° |
| 2026-05-03 21:03 | 39.67337 | -85.02067 | 29058 ft | 491 kts | 47° |
| 2026-05-03 21:04 | 39.71334 | -84.94869 | 29067 ft | 491 kts | 47° |
| 2026-05-03 21:04 | 39.75330 | -84.87649 | 29042 ft | 492 kts | 47° |
| 2026-05-03 21:05 | 39.79314 | -84.80426 | 29047 ft | 491 kts | 47° |
| 2026-05-03 21:05 | 39.83300 | -84.73202 | 29042 ft | 491 kts | 47° |
| 2026-05-03 21:06 | 39.87273 | -84.65971 | 29062 ft | 491 kts | 47° |
| 2026-05-03 21:06 | 39.91242 | -84.58740 | 29071 ft | 491 kts | 47° |
| 2026-05-03 21:07 | 39.95204 | -84.51502 | 29050 ft | 491 kts | 48° |
| 2026-05-03 21:07 | 39.99312 | -84.44542 | 29031 ft | 477 kts | 34° |
| 2026-05-03 21:08 | 40.01972 | -84.42120 | 29041 ft | 457 kts | 17° |
| 2026-05-03 21:08 | 40.04905 | -84.40797 | 29059 ft | 440 kts | 4° |
| 2026-05-03 21:08 | 40.10871 | -84.39729 | 29069 ft | 425 kts | 352° |
| 2026-05-03 21:09 | 40.15754 | -84.39940 | 29078 ft | 421 kts | 349° |
| 2026-05-03 21:09 | 40.21628 | -84.40279 | 29062 ft | 424 kts | 350° |
| 2026-05-03 21:10 | 40.27529 | -84.40427 | 29057 ft | 424 kts | 351° |
| 2026-05-03 21:10 | 40.33424 | -84.40584 | 29013 ft | 424 kts | 351° |
| 2026-05-03 21:11 | 40.36369 | -84.40661 | 28436 ft | 421 kts | 351° |
| 2026-05-03 21:11 | 40.39278 | -84.40743 | 27815 ft | 415 kts | 351° |
| 2026-05-03 21:11 | 40.42147 | -84.40819 | 27225 ft | 411 kts | 351° |
| 2026-05-03 21:11 | 40.44995 | -84.40898 | 26644 ft | 407 kts | 351° |
| 2026-05-03 21:12 | 40.47776 | -84.40972 | 26090 ft | 404 kts | 351° |
| 2026-05-03 21:12 | 40.50174 | -84.41038 | 25610 ft | 401 kts | 351° |
| 2026-05-03 21:22 | 40.51422 | -84.41071 | 25362 ft | 400 kts | 351° |
| 2026-05-03 21:22 | 40.54195 | -84.41145 | 24839 ft | 397 kts | 351° |
| 2026-05-03 21:22 | 40.56944 | -84.41223 | 24336 ft | 394 kts | 351° |
| 2026-05-03 21:22 | 40.59641 | -84.41292 | 23846 ft | 392 kts | 351° |
| 2026-05-03 21:23 | 40.62365 | -84.41369 | 23296 ft | 390 kts | 351° |
| 2026-05-03 21:23 | 40.65079 | -84.41442 | 22717 ft | 389 kts | 351° |
| 2026-05-03 21:23 | 40.67776 | -84.41517 | 22154 ft | 387 kts | 352° |
| 2026-05-03 21:23 | 40.70466 | -84.41590 | 21601 ft | 385 kts | 352° |
| 2026-05-03 21:24 | 40.73151 | -84.41670 | 21271 ft | 387 kts | 352° |
| 2026-05-03 21:24 | 40.75843 | -84.41714 | 21131 ft | 386 kts | 353° |
| 2026-05-03 21:24 | 40.78416 | -84.41743 | 21080 ft | 383 kts | 353° |
| 2026-05-03 21:24 | 40.81071 | -84.41775 | 21040 ft | 380 kts | 353° |
| 2026-05-03 21:25 | 40.83705 | -84.41807 | 21020 ft | 378 kts | 352° |
| 2026-05-03 21:25 | 40.86338 | -84.41844 | 21014 ft | 379 kts | 352° |
| 2026-05-03 21:25 | 40.88973 | -84.41876 | 21010 ft | 379 kts | 352° |
| 2026-05-03 21:25 | 40.91613 | -84.41912 | 21012 ft | 379 kts | 353° |
| 2026-05-03 21:26 | 40.94246 | -84.41945 | 21011 ft | 379 kts | 353° |
| 2026-05-03 21:26 | 40.96886 | -84.41976 | 21009 ft | 379 kts | 352° |
| 2026-05-03 21:26 | 40.99524 | -84.42012 | 21009 ft | 379 kts | 352° |
| 2026-05-03 21:26 | 41.02164 | -84.42042 | 21019 ft | 380 kts | 353° |
| 2026-05-03 21:27 | 41.04804 | -84.42048 | 21012 ft | 380 kts | 353° |
| 2026-05-03 21:27 | 41.07413 | -84.42054 | 21018 ft | 380 kts | 353° |
| 2026-05-03 21:27 | 41.10058 | -84.42083 | 20972 ft | 380 kts | 353° |
| 2026-05-03 21:27 | 41.12649 | -84.42111 | 20748 ft | 367 kts | 353° |
| 2026-05-03 21:28 | 41.15197 | -84.42148 | 20532 ft | 367 kts | 353° |
| 2026-05-03 21:28 | 41.17754 | -84.42188 | 20325 ft | 368 kts | 353° |
| 2026-05-03 21:28 | 41.20313 | -84.42229 | 20119 ft | 368 kts | 353° |
| 2026-05-03 21:28 | 41.22878 | -84.42270 | 19939 ft | 369 kts | 353° |
| 2026-05-03 21:29 | 41.25447 | -84.42318 | 19742 ft | 370 kts | 353° |
| 2026-05-03 21:29 | 41.28026 | -84.42370 | 19545 ft | 370 kts | 354° |
| 2026-05-03 21:29 | 41.30603 | -84.42410 | 19351 ft | 371 kts | 354° |
| 2026-05-03 21:29 | 41.33185 | -84.42442 | 19160 ft | 372 kts | 354° |
| 2026-05-03 21:30 | 41.35759 | -84.42479 | 18969 ft | 372 kts | 354° |
| 2026-05-03 21:30 | 41.38222 | -84.42511 | 18789 ft | 372 kts | 354° |
| 2026-05-03 21:30 | 41.40811 | -84.42544 | 18597 ft | 373 kts | 354° |
| 2026-05-03 21:30 | 41.43407 | -84.42583 | 18423 ft | 373 kts | 355° |
| 2026-05-03 21:31 | 41.45983 | -84.42006 | 18216 ft | 385 kts | 17° |
| 2026-05-03 21:31 | 41.48271 | -84.40072 | 18026 ft | 395 kts | 34° |
| 2026-05-03 21:31 | 41.50325 | -84.37790 | 17846 ft | 395 kts | 35° |
| 2026-05-03 21:31 | 41.52475 | -84.35527 | 17611 ft | 394 kts | 32° |
| 2026-05-03 21:32 | 41.54702 | -84.33487 | 17407 ft | 392 kts | 28° |
| 2026-05-03 21:32 | 41.57023 | -84.31581 | 17210 ft | 391 kts | 26° |
| 2026-05-03 21:32 | 41.59317 | -84.29725 | 17116 ft | 378 kts | 26° |
| 2026-05-03 21:32 | 41.61520 | -84.27918 | 17066 ft | 367 kts | 27° |
| 2026-05-03 21:33 | 41.63685 | -84.26118 | 17046 ft | 367 kts | 27° |
| 2026-05-03 21:33 | 41.65853 | -84.24293 | 17033 ft | 369 kts | 27° |
| 2026-05-03 21:33 | 41.68025 | -84.22455 | 17033 ft | 370 kts | 27° |
| 2026-05-03 21:33 | 41.70203 | -84.20609 | 17035 ft | 371 kts | 27° |
| 2026-05-03 21:34 | 41.72272 | -84.18821 | 17028 ft | 374 kts | 31° |
| 2026-05-03 21:34 | 41.74292 | -84.16598 | 17033 ft | 378 kts | 37° |
| 2026-05-03 21:34 | 41.76147 | -84.14255 | 16953 ft | 379 kts | 40° |
| 2026-05-03 21:34 | 41.77948 | -84.11698 | 16698 ft | 378 kts | 43° |
| 2026-05-03 21:35 | 41.79713 | -84.09082 | 16438 ft | 376 kts | 43° |
| 2026-05-03 21:35 | 41.81458 | -84.06483 | 16173 ft | 373 kts | 44° |
| 2026-05-03 21:35 | 41.83184 | -84.03907 | 15915 ft | 370 kts | 44° |
| 2026-05-03 21:35 | 41.84926 | -84.01376 | 15668 ft | 368 kts | 43° |
| 2026-05-03 21:36 | 41.86663 | -83.98865 | 15414 ft | 365 kts | 43° |
| 2026-05-03 21:36 | 41.88393 | -83.96376 | 15151 ft | 365 kts | 43° |
| 2026-05-03 21:36 | 41.90122 | -83.93869 | 14911 ft | 366 kts | 43° |
| 2026-05-03 21:36 | 41.91829 | -83.91396 | 14677 ft | 366 kts | 43° |
| 2026-05-03 21:37 | 41.93567 | -83.88890 | 14440 ft | 366 kts | 43° |
| 2026-05-03 21:37 | 41.95304 | -83.86386 | 14202 ft | 366 kts | 43° |
| 2026-05-03 21:37 | 41.96937 | -83.84037 | 13979 ft | 366 kts | 43° |
| 2026-05-03 21:37 | 41.98676 | -83.81529 | 13736 ft | 366 kts | 43° |
| 2026-05-03 21:38 | 42.00408 | -83.79021 | 13476 ft | 366 kts | 43° |
| 2026-05-03 21:38 | 42.02058 | -83.76646 | 13228 ft | 356 kts | 43° |
| 2026-05-03 21:38 | 42.03724 | -83.74258 | 12973 ft | 345 kts | 43° |
| 2026-05-03 21:38 | 42.05340 | -83.71937 | 12704 ft | 336 kts | 43° |
| 2026-05-03 21:39 | 42.06926 | -83.69671 | 12439 ft | 328 kts | 43° |
| 2026-05-03 21:39 | 42.08476 | -83.67456 | 12165 ft | 323 kts | 43° |
| 2026-05-03 21:39 | 42.09830 | -83.65046 | 11893 ft | 327 kts | 64° |
| 2026-05-03 21:39 | 42.10491 | -83.62121 | 11689 ft | 327 kts | 77° |
| 2026-05-03 21:40 | 42.10908 | -83.59117 | 11477 ft | 326 kts | 79° |
| 2026-05-03 21:40 | 42.11289 | -83.56118 | 11271 ft | 325 kts | 79° |
| 2026-05-03 21:40 | 42.11687 | -83.53130 | 11046 ft | 324 kts | 78° |
| 2026-05-03 21:40 | 42.12140 | -83.50164 | 10818 ft | 322 kts | 77° |
| 2026-05-03 21:41 | 42.12595 | -83.47430 | 10616 ft | 320 kts | 76° |
| 2026-05-03 21:41 | 42.13085 | -83.44512 | 10383 ft | 318 kts | 77° |
| 2026-05-03 21:41 | 42.13559 | -83.41604 | 10189 ft | 319 kts | 77° |
| 2026-05-03 21:41 | 42.14033 | -83.38711 | 9972 ft | 322 kts | 77° |
| 2026-05-03 21:42 | 42.14520 | -83.35712 | 9749 ft | 324 kts | 77° |
| 2026-05-03 21:42 | 42.14997 | -83.32778 | 9509 ft | 325 kts | 77° |
| 2026-05-03 21:42 | 42.15481 | -83.29826 | 9272 ft | 321 kts | 77° |
| 2026-05-03 21:42 | 42.15952 | -83.26903 | 9014 ft | 317 kts | 78° |
| 2026-05-03 21:43 | 42.16559 | -83.24068 | 8756 ft | 314 kts | 61° |
| 2026-05-03 21:43 | 42.17949 | -83.21893 | 8505 ft | 303 kts | 30° |
| 2026-05-03 21:43 | 42.19763 | -83.20552 | 8340 ft | 292 kts | 21° |
| 2026-05-03 21:43 | 42.21567 | -83.19373 | 8174 ft | 284 kts | 20° |
| 2026-05-03 21:44 | 42.23394 | -83.18461 | 7795 ft | 277 kts | 5° |
| 2026-05-03 21:44 | 42.25245 | -83.17772 | 7366 ft | 279 kts | 24° |
| 2026-05-03 21:44 | 42.26849 | -83.16333 | 6976 ft | 274 kts | 31° |
| 2026-05-03 21:44 | 42.28325 | -83.14930 | 6597 ft | 270 kts | 31° |
| 2026-05-03 21:45 | 42.29703 | -83.13588 | 6234 ft | 267 kts | 32° |
| 2026-05-03 21:45 | 42.31242 | -83.12240 | 5802 ft | 259 kts | 15° |
| 2026-05-03 21:45 | 42.32938 | -83.12017 | 5374 ft | 238 kts | 337° |
| 2026-05-03 21:45 | 42.34274 | -83.13076 | 5022 ft | 218 kts | 307° |
| 2026-05-03 21:46 | 42.35310 | -83.14468 | 4678 ft | 217 kts | 306° |
| 2026-05-03 21:46 | 42.36079 | -83.16036 | 4274 ft | 203 kts | 276° |
| 2026-05-03 21:46 | 42.35961 | -83.17845 | 3887 ft | 192 kts | 253° |
| 2026-05-03 21:46 | 42.35640 | -83.19587 | 3509 ft | 190 kts | 253° |
| 2026-05-03 21:47 | 42.35308 | -83.21281 | 3232 ft | 187 kts | 252° |
| 2026-05-03 21:47 | 42.34689 | -83.22754 | 3077 ft | 181 kts | 221° |
| 2026-05-03 21:47 | 42.33706 | -83.23706 | 3102 ft | 163 kts | 219° |
| 2026-05-03 21:47 | 42.32813 | -83.24542 | 3101 ft | 150 kts | 219° |
| 2026-05-03 21:48 | 42.32042 | -83.25290 | 3145 ft | 128 kts | 221° |
| 2026-05-03 21:48 | 42.31343 | -83.25994 | 3040 ft | 123 kts | 219° |
| 2026-05-03 21:48 | 42.30643 | -83.26641 | 2894 ft | 124 kts | 219° |
| 2026-05-03 21:48 | 42.29898 | -83.27293 | 2636 ft | 129 kts | 218° |
| 2026-05-03 21:49 | 42.29148 | -83.27946 | 2513 ft | 127 kts | 218° |
| 2026-05-03 21:49 | 42.28396 | -83.28597 | 2293 ft | 130 kts | 217° |
| 2026-05-03 21:49 | 42.27608 | -83.29222 | 2085 ft | 130 kts | 214° |
| 2026-05-03 21:49 | 42.26843 | -83.29768 | 1865 ft | 128 kts | 212° |
| 2026-05-03 21:50 | 42.26059 | -83.30354 | 1696 ft | 131 kts | 214° |
| 2026-05-03 21:50 | 42.25274 | -83.30946 | 1527 ft | 129 kts | 215° |
| 2026-05-03 21:50 | 42.24504 | -83.31519 | 1332 ft | 124 kts | 216° |
| 2026-05-03 21:50 | 42.23747 | -83.32082 | 1143 ft | 127 kts | 214° |
| 2026-05-03 21:51 | 42.22988 | -83.32648 | 943 ft | 122 kts | 212° |
| 2026-05-03 21:51 | 42.22254 | -83.33181 | 764 ft | 117 kts | 213° |
| 2026-05-03 21:51 | 42.21523 | -83.33733 | 658 ft | 117 kts | 213° |
| 2026-05-03 21:51 | 42.20929 | -83.34182 | 648 ft | 80 kts | 210° |
| 2026-05-03 21:52 | 42.20719 | -83.34335 | 648 ft | 20 kts | 216° |
| 2026-05-03 21:52 | 42.20619 | -83.34461 | 650 ft | 20 kts | 230° |
| 2026-05-03 21:52 | 42.20539 | -83.34630 | 649 ft | 23 kts | 240° |
| 2026-05-03 21:52 | 42.20431 | -83.34793 | 649 ft | 25 kts | 209° |
| 2026-05-03 21:53 | 42.20273 | -83.34909 | 649 ft | 26 kts | 208° |
| 2026-05-03 21:53 | 42.20173 | -83.35011 | 648 ft | 11 kts | 256° |
| 2026-05-03 21:53 | 42.20178 | -83.35168 | 648 ft | 20 kts | 269° |
| 2026-05-03 21:53 | 42.20175 | -83.35364 | 648 ft | 22 kts | 269° |
| 2026-05-03 21:54 | 42.20170 | -83.35625 | 648 ft | 29 kts | 268° |
| 2026-05-03 21:54 | 42.20164 | -83.35901 | 648 ft | 27 kts | 269° |
| 2026-05-03 21:54 | 42.20169 | -83.36098 | 649 ft | 13 kts | 294° |
| 2026-05-03 21:54 | 42.20236 | -83.36157 | 648 ft | 6 kts | 338° |
| 2026-05-03 21:55 | 42.20243 | -83.36161 | 648 ft | 0 kts | 339° |